Time;durP1;ratioP1;P1;durP2;ratioP2;P2;SDS_P1;SDS_P2;PMS_P1;PMS_P2;Temp;Humidity;BMP_temperature;BMP_pressure;BME280_temperature;BME280_humidity;BME280_pressure;Samples;Min_cycle;Max_cycle;Signal;HPM_P1;HPM_P2
2022/01/18 00:02:05;;;;;;;20.55;16.48;;;7.70;99.90;;;;;;4872077;29;20251;-60
2022/01/18 00:04:39;;;;;;;19.38;16.73;;;7.60;99.90;;;;;;4882623;29;20657;-61
2022/01/18 00:07:10;;;;;;;18.48;15.02;;;7.60;99.90;;;;;;4882959;29;20204;-61
2022/01/18 00:09:42;;;;;;;18.83;14.40;;;7.60;99.90;;;;;;4918609;29;20215;-61
2022/01/18 00:12:32;;;;;;;20.40;15.77;;;7.60;99.90;;;;;;4923231;29;20290;-60
2022/01/18 00:15:29;;;;;;;20.25;15.40;;;7.60;99.90;;;;;;4926923;29;20277;-60
2022/01/18 00:18:09;;;;;;;22.45;15.48;;;7.40;99.90;;;;;;4927260;29;20270;-60
2022/01/18 00:20:49;;;;;;;20.98;15.80;;;7.30;99.90;;;;;;4926939;29;20191;-60
2022/01/18 00:23:41;;;;;;;19.50;14.40;;;7.30;99.90;;;;;;4926083;29;20215;-60
2022/01/18 00:26:14;;;;;;;19.20;15.32;;;7.10;99.90;;;;;;4923586;29;20202;-60
2022/01/18 00:28:50;;;;;;;21.88;15.55;;;7.10;99.90;;;;;;4921977;29;20270;-60
2022/01/18 00:31:37;;;;;;;18.63;14.45;;;7.00;99.90;;;;;;4916009;29;20207;-60
2022/01/18 00:34:22;;;;;;;17.52;14.75;;;7.10;99.90;;;;;;4912913;29;20623;-60
2022/01/18 00:37:24;;;;;;;19.90;15.75;;;7.00;99.90;;;;;;4917229;29;20298;-60
2022/01/18 00:39:55;;;;;;;17.55;14.93;;;7.10;99.90;;;;;;4920053;29;20202;-61
2022/01/18 00:42:27;;;;;;;18.35;14.30;;;7.10;99.90;;;;;;4910771;29;20655;-61
2022/01/18 00:44:59;;;;;;;23.02;18.92;;;7.00;99.90;;;;;;4921974;29;20221;-61
2022/01/18 00:47:30;;;;;;;22.98;18.60;;;7.00;99.90;;;;;;4916193;29;20709;-61
2022/01/18 00:50:03;;;;;;;23.80;17.90;;;7.00;99.90;;;;;;4919154;29;20199;-60
2022/01/18 00:52:41;;;;;;;24.55;19.88;;;6.80;99.90;;;;;;4923286;29;20242;-62
2022/01/18 00:55:14;;;;;;;21.40;17.70;;;7.00;99.90;;;;;;4924931;29;20261;-60
2022/01/18 00:57:46;;;;;;;21.23;16.95;;;7.00;99.90;;;;;;4921267;29;20217;-61
2022/01/18 01:00:18;;;;;;;21.55;16.90;;;7.00;99.90;;;;;;4918450;29;20556;-61
2022/01/18 01:02:49;;;;;;;20.55;16.33;;;7.00;99.90;;;;;;4921589;29;20662;-60
2022/01/18 01:05:20;;;;;;;17.45;14.57;;;7.00;99.90;;;;;;4920709;29;20210;-60
2022/01/18 01:07:51;;;;;;;21.30;15.77;;;7.10;99.90;;;;;;4917420;29;20682;-61
2022/01/18 01:10:31;;;;;;;19.05;14.98;;;7.10;99.90;;;;;;4923794;29;20270;-61
2022/01/18 01:13:04;;;;;;;20.80;13.70;;;7.00;99.90;;;;;;4916840;29;20211;-60
2022/01/18 01:15:52;;;;;;;19.75;15.95;;;6.90;99.90;;;;;;4927375;29;20242;-60
2022/01/18 01:18:37;;;;;;;19.48;16.23;;;6.80;99.90;;;;;;4918663;29;20195;-60
2022/01/18 01:32:54;;;;;;;19.92;15.52;;;6.70;99.90;;;;;;4923161;29;20213;-58
2022/01/18 01:35:38;;;;;;;20.05;14.77;;;6.60;99.90;;;;;;4921930;29;20273;-61
2022/01/18 01:44:03;;;;;;;16.42;13.27;;;6.70;99.90;;;;;;4927395;29;20230;-59
2022/01/18 01:46:40;;;;;;;19.40;15.13;;;6.70;99.90;;;;;;4924564;29;20281;-59
2022/01/18 01:49:13;;;;;;;22.58;19.63;;;6.80;99.90;;;;;;4919908;29;20205;-60
2022/01/18 01:51:47;;;;;;;18.98;16.95;;;6.70;99.90;;;;;;4917441;29;20671;-60
2022/01/18 01:54:18;;;;;;;20.73;17.20;;;6.70;99.90;;;;;;4916021;29;20222;-59
2022/01/18 01:56:49;;;;;;;20.23;15.15;;;6.50;99.90;;;;;;4917744;29;20246;-59
2022/01/18 01:59:21;;;;;;;19.10;15.00;;;6.50;99.90;;;;;;4926692;29;20210;-60
2022/01/18 02:01:54;;;;;;;18.15;14.43;;;6.40;99.90;;;;;;4928875;29;20209;-60
2022/01/18 02:04:25;;;;;;;18.27;14.55;;;6.40;99.90;;;;;;4926822;29;20234;-59
2022/01/18 02:06:56;;;;;;;17.92;15.23;;;6.60;99.90;;;;;;4929493;29;20222;-61
2022/01/18 02:09:27;;;;;;;22.08;15.48;;;6.70;99.90;;;;;;4924215;29;20198;-61
2022/01/18 02:12:00;;;;;;;20.55;15.45;;;6.60;99.90;;;;;;4925377;29;20291;-60
2022/01/18 02:14:32;;;;;;;22.08;15.32;;;6.70;99.90;;;;;;4915003;29;20302;-61
2022/01/18 02:22:43;;;;;;;17.60;13.88;;;6.70;99.90;;;;;;4921789;29;20281;-60
2022/01/18 02:25:14;;;;;;;16.30;14.55;;;6.50;99.90;;;;;;4925478;29;20297;-60
2022/01/18 02:27:46;;;;;;;18.95;14.48;;;6.50;99.90;;;;;;4927661;29;22026;-61
2022/01/18 02:30:18;;;;;;;22.35;15.55;;;6.50;99.90;;;;;;4923770;29;20203;-61
2022/01/18 02:32:49;;;;;;;17.65;14.77;;;6.40;99.90;;;;;;4924716;29;20233;-61
2022/01/18 02:35:21;;;;;;;17.80;14.85;;;6.50;99.90;;;;;;4928960;29;20302;-60
2022/01/18 02:37:56;;;;;;;20.33;15.65;;;6.50;99.90;;;;;;4925550;29;20226;-60
2022/01/18 02:40:27;;;;;;;20.00;14.00;;;6.60;99.90;;;;;;4916114;29;20206;-61
2022/01/18 02:43:00;;;;;;;17.92;14.15;;;6.40;99.90;;;;;;4923572;29;20194;-60
2022/01/18 02:45:32;;;;;;;19.83;14.63;;;6.40;99.90;;;;;;4929122;29;20270;-62
2022/01/18 02:48:02;;;;;;;16.45;12.48;;;6.50;99.90;;;;;;4916182;29;20234;-62
2022/01/18 02:50:33;;;;;;;22.33;14.13;;;6.50;99.90;;;;;;4917759;29;20218;-60
2022/01/18 02:53:06;;;;;;;19.17;13.48;;;6.40;99.90;;;;;;4922527;29;20651;-60
2022/01/18 02:55:37;;;;;;;18.95;13.43;;;6.20;99.90;;;;;;4920422;29;20198;-60
2022/01/18 02:58:10;;;;;;;17.10;13.32;;;6.20;99.90;;;;;;4923072;29;20227;-61
2022/01/18 03:03:12;;;;;;;17.23;13.32;;;6.20;99.90;;;;;;4928404;29;20211;-62
2022/01/18 03:03:36;;;;;;;19.00;14.32;;;6.10;99.90;;;;;;4920430;29;20212;-62
2022/01/18 03:06:08;;;;;;;17.88;13.88;;;6.20;99.90;;;;;;4924252;29;20217;-62
2022/01/18 03:08:43;;;;;;;16.98;13.35;;;6.20;99.90;;;;;;4921901;29;20225;-62
2022/01/18 03:11:15;;;;;;;20.73;15.25;;;6.30;99.90;;;;;;4920986;29;20292;-63
2022/01/18 03:13:46;;;;;;;21.00;14.13;;;6.20;99.90;;;;;;4927376;29;20195;-65
2022/01/18 03:16:20;;;;;;;19.30;14.43;;;6.10;99.90;;;;;;4924145;29;20271;-64
2022/01/18 03:18:52;;;;;;;18.60;15.02;;;6.10;99.90;;;;;;4919485;29;20203;-64
2022/01/18 03:21:23;;;;;;;20.02;15.15;;;6.20;99.90;;;;;;4917807;29;20290;-67
2022/01/18 03:24:11;;;;;;;21.15;14.98;;;6.20;99.90;;;;;;4915306;29;20207;-65
2022/01/18 03:29:30;;;;;;;18.33;14.05;;;6.20;99.90;;;;;;4913126;29;20246;-63
2022/01/18 03:32:01;;;;;;;20.48;15.15;;;6.30;99.90;;;;;;4925182;29;20235;-63
2022/01/18 03:34:32;;;;;;;20.67;15.07;;;6.30;99.90;;;;;;4919864;29;20218;-62
2022/01/18 03:37:03;;;;;;;20.17;15.70;;;6.30;99.90;;;;;;4927711;29;20302;-62
2022/01/18 03:39:36;;;;;;;18.73;13.88;;;6.30;99.90;;;;;;4923853;29;20228;-62
2022/01/18 03:42:33;;;;;;;23.90;16.35;;;6.20;99.90;;;;;;4911667;29;20231;-63
2022/01/18 03:45:06;;;;;;;20.25;15.25;;;6.20;99.90;;;;;;4926046;29;20289;-63
2022/01/18 03:47:37;;;;;;;25.42;15.98;;;6.10;99.90;;;;;;4922148;29;20252;-63
2022/01/18 03:50:09;;;;;;;28.10;17.42;;;6.00;99.90;;;;;;4918003;29;20271;-63
2022/01/18 03:52:42;;;;;;;25.77;17.98;;;6.10;99.90;;;;;;4921806;29;20234;-63
2022/01/18 03:55:16;;;;;;;23.33;16.85;;;6.10;99.90;;;;;;4910185;29;20227;-64
2022/01/18 03:57:56;;;;;;;26.25;19.60;;;6.10;99.90;;;;;;4918311;29;20333;-64
2022/01/18 04:00:29;;;;;;;27.08;18.90;;;6.10;99.90;;;;;;4918214;29;20210;-64
2022/01/18 04:03:00;;;;;;;22.40;15.52;;;6.10;99.90;;;;;;4925059;29;20233;-64
2022/01/18 04:05:33;;;;;;;25.17;17.33;;;6.10;99.90;;;;;;4922579;29;20290;-63
2022/01/18 04:08:06;;;;;;;24.08;16.73;;;6.20;99.90;;;;;;4922540;29;20205;-64
2022/01/18 04:10:39;;;;;;;20.67;15.75;;;6.20;99.90;;;;;;4925681;29;20241;-63
2022/01/18 04:13:10;;;;;;;23.17;16.63;;;6.10;99.90;;;;;;4923457;29;20301;-64
2022/01/18 04:15:43;;;;;;;20.48;15.85;;;6.10;99.90;;;;;;4921776;29;20207;-64
2022/01/18 04:18:25;;;;;;;20.60;14.90;;;6.00;99.90;;;;;;4912309;29;20311;-66
2022/01/18 04:27:02;;;;;;;22.25;16.90;;;6.10;99.90;;;;;;4859176;29;20296;-65
2022/01/18 04:29:33;;;;;;;24.08;17.35;;;6.10;99.90;;;;;;4856149;29;20242;-66
2022/01/18 04:32:22;;;;;;;29.70;17.35;;;6.00;99.90;;;;;;4865349;29;20290;-66
2022/01/18 04:34:53;;;;;;;23.85;18.00;;;5.90;99.90;;;;;;4860237;29;20652;-68
2022/01/18 04:37:27;;;;;;;21.90;17.15;;;5.90;99.90;;;;;;4866949;29;20246;-67
2022/01/18 04:39:59;;;;;;;23.85;15.25;;;5.90;99.90;;;;;;4862251;29;20250;-67
2022/01/18 04:42:59;;;;;;;23.13;16.63;;;6.00;99.90;;;;;;4866920;29;20213;-68
2022/01/18 04:48:27;;;;;;;23.75;16.80;;;6.10;99.90;;;;;;4865008;29;20244;-67
2022/01/18 04:51:01;;;;;;;24.08;16.95;;;5.90;99.90;;;;;;4865577;29;20200;-68
2022/01/18 04:53:32;;;;;;;27.95;16.95;;;6.00;99.90;;;;;;4855296;29;20257;-65
2022/01/18 04:56:08;;;;;;;24.33;15.18;;;6.00;99.90;;;;;;4861651;29;20209;-68
2022/01/18 04:58:43;;;;;;;25.05;16.20;;;6.00;99.90;;;;;;4863533;29;20240;-68
2022/01/18 05:01:17;;;;;;;26.20;17.08;;;6.10;99.90;;;;;;4862368;29;20295;-66
2022/01/18 05:03:48;;;;;;;25.60;17.80;;;6.10;99.90;;;;;;4896070;29;20228;-67
2022/01/18 05:06:21;;;;;;;29.25;18.95;;;6.00;99.90;;;;;;4918813;29;20562;-65
2022/01/18 05:08:52;;;;;;;25.30;15.93;;;5.90;99.90;;;;;;4924332;29;20199;-66
2022/01/18 05:11:26;;;;;;;26.23;20.02;;;6.00;99.90;;;;;;4919646;29;20211;-67
2022/01/18 05:14:14;;;;;;;27.15;18.67;;;6.00;99.90;;;;;;4922533;29;20215;-65
2022/01/18 05:16:53;;;;;;;27.63;19.25;;;5.90;99.90;;;;;;4910713;29;20724;-68
2022/01/18 05:19:29;;;;;;;29.20;18.13;;;5.90;99.90;;;;;;4915391;29;20318;-68
2022/01/18 05:24:47;;;;;;;21.70;15.55;;;6.00;99.90;;;;;;4914639;29;20643;-66
2022/01/18 05:27:18;;;;;;;21.75;16.63;;;5.90;99.90;;;;;;4921935;29;20302;-64
2022/01/18 05:29:51;;;;;;;20.45;16.35;;;5.90;99.90;;;;;;4921491;29;20214;-65
2022/01/18 05:32:21;;;;;;;21.20;15.50;;;6.00;99.90;;;;;;4924352;29;20230;-65
2022/01/18 05:34:52;;;;;;;23.30;17.27;;;6.00;99.90;;;;;;4920957;29;20301;-65
2022/01/18 05:37:51;;;;;;;21.85;16.48;;;6.00;99.90;;;;;;4918441;29;20207;-65
2022/01/18 05:40:23;;;;;;;21.05;16.67;;;5.90;99.90;;;;;;4914173;29;20215;-65
2022/01/18 05:42:55;;;;;;;27.98;17.13;;;6.10;99.90;;;;;;4926014;29;20195;-65
2022/01/18 05:45:28;;;;;;;24.95;16.58;;;6.10;99.90;;;;;;4919629;29;20220;-65
2022/01/18 05:47:59;;;;;;;20.55;15.60;;;6.10;99.90;;;;;;4916700;29;20290;-65
2022/01/18 05:50:30;;;;;;;24.45;16.60;;;6.10;99.90;;;;;;4924110;29;20215;-65
2022/01/18 05:53:02;;;;;;;24.38;16.50;;;6.10;99.90;;;;;;4916455;29;20238;-64
2022/01/18 05:55:34;;;;;;;20.98;15.88;;;6.20;99.90;;;;;;4925249;29;20278;-65
2022/01/18 05:58:05;;;;;;;22.38;15.50;;;6.30;99.90;;;;;;4926164;29;20233;-64
2022/01/18 06:00:40;;;;;;;23.17;16.40;;;6.10;99.90;;;;;;4923022;29;20251;-65
2022/01/18 06:03:15;;;;;;;19.70;15.52;;;6.20;99.90;;;;;;4926471;29;20641;-65
2022/01/18 06:08:33;;;;;;;24.30;16.25;;;6.10;99.90;;;;;;4922787;29;20278;-65
2022/01/18 06:11:04;;;;;;;23.83;17.40;;;6.10;99.90;;;;;;4923716;29;20302;-65
2022/01/18 06:13:35;;;;;;;23.10;16.70;;;6.10;99.90;;;;;;4914005;29;20199;-65
2022/01/18 06:16:13;;;;;;;23.90;17.00;;;6.10;99.90;;;;;;4925463;29;20207;-64
2022/01/18 06:18:44;;;;;;;26.65;18.88;;;6.10;99.90;;;;;;4926127;29;20229;-64
2022/01/18 06:21:15;;;;;;;27.92;19.20;;;6.10;99.90;;;;;;4919557;29;20329;-64
2022/01/18 06:23:46;;;;;;;24.52;17.30;;;6.20;99.90;;;;;;4924349;29;20238;-64
2022/01/18 06:26:17;;;;;;;27.65;17.40;;;6.30;99.90;;;;;;4926420;29;20217;-64
2022/01/18 06:28:48;;;;;;;24.10;17.23;;;6.30;99.90;;;;;;4920018;29;20218;-63
2022/01/18 06:31:22;;;;;;;28.55;18.58;;;6.20;99.90;;;;;;4924780;29;20211;-65
2022/01/18 06:33:53;;;;;;;27.30;18.08;;;6.10;99.90;;;;;;4924593;29;20214;-63
2022/01/18 06:36:26;;;;;;;27.70;18.90;;;6.00;99.90;;;;;;4929424;29;20239;-65
2022/01/18 06:38:57;;;;;;;27.95;19.55;;;6.10;99.90;;;;;;4922554;29;20237;-64
2022/01/18 06:41:28;;;;;;;27.58;18.50;;;6.10;99.90;;;;;;4921568;29;20663;-64
2022/01/18 06:43:58;;;;;;;33.40;21.15;;;6.20;99.90;;;;;;4922221;29;20202;-64
2022/01/18 06:46:31;;;;;;;27.58;19.15;;;6.20;99.90;;;;;;4927767;29;20237;-65
2022/01/18 06:49:02;;;;;;;26.67;20.40;;;6.10;99.90;;;;;;4924346;29;20203;-66
2022/01/18 06:51:33;;;;;;;25.77;18.10;;;6.20;99.90;;;;;;4928655;29;20298;-65
2022/01/18 06:54:04;;;;;;;28.67;20.42;;;6.20;99.90;;;;;;4923960;29;20225;-65
2022/01/18 06:56:35;;;;;;;30.75;19.88;;;6.20;99.90;;;;;;4923831;29;20215;-66
2022/01/18 06:59:07;;;;;;;23.45;18.38;;;6.10;99.90;;;;;;4926578;29;20218;-65
2022/01/18 07:01:41;;;;;;;27.45;19.52;;;6.20;99.90;;;;;;4925854;29;20209;-65
2022/01/18 07:04:12;;;;;;;29.80;19.63;;;6.20;99.90;;;;;;4925752;29;20274;-65
2022/01/18 07:06:45;;;;;;;31.85;20.90;;;6.20;99.90;;;;;;4921218;29;20294;-65
2022/01/18 07:09:22;;;;;;;30.77;20.90;;;6.10;99.90;;;;;;4916478;29;20314;-65
2022/01/18 07:11:54;;;;;;;27.80;19.77;;;6.20;99.90;;;;;;4926060;29;20615;-65
2022/01/18 07:14:25;;;;;;;29.65;19.75;;;6.20;99.90;;;;;;4926971;29;20218;-65
2022/01/18 07:16:58;;;;;;;30.48;20.45;;;6.10;99.90;;;;;;4925273;29;20191;-65
2022/01/18 07:19:31;;;;;;;24.70;19.23;;;6.10;99.90;;;;;;4927531;29;20235;-65
2022/01/18 07:22:02;;;;;;;27.98;19.95;;;6.10;99.90;;;;;;4919589;29;20306;-66
2022/01/18 07:24:42;;;;;;;27.73;19.65;;;6.20;99.90;;;;;;4924826;29;20202;-65
2022/01/18 07:27:14;;;;;;;29.75;20.35;;;6.30;99.90;;;;;;4918544;29;20206;-65
2022/01/18 07:29:50;;;;;;;26.90;18.98;;;6.30;99.90;;;;;;4921340;29;20286;-65
2022/01/18 07:32:22;;;;;;;29.75;21.35;;;6.30;99.90;;;;;;4925925;29;20202;-65
2022/01/18 07:34:55;;;;;;;27.17;19.40;;;6.30;99.90;;;;;;4926844;29;20230;-65
2022/01/18 07:37:26;;;;;;;30.00;20.42;;;6.30;99.90;;;;;;4927162;29;20209;-65
2022/01/18 07:39:57;;;;;;;24.15;17.60;;;6.30;99.90;;;;;;4924518;29;20306;-64
2022/01/18 07:42:28;;;;;;;27.92;19.40;;;6.20;99.90;;;;;;4916694;29;20278;-65
2022/01/18 07:44:59;;;;;;;29.33;19.80;;;6.20;99.90;;;;;;4926904;29;20219;-65
2022/01/18 07:47:34;;;;;;;34.00;21.95;;;6.20;99.90;;;;;;4924594;29;20230;-65
2022/01/18 07:50:06;;;;;;;28.17;20.23;;;6.20;99.90;;;;;;4913657;29;20215;-65
2022/01/18 07:52:37;;;;;;;27.20;19.67;;;6.20;99.90;;;;;;4921527;29;20270;-65
2022/01/18 07:55:09;;;;;;;26.40;20.35;;;6.20;99.90;;;;;;4921835;29;20206;-65
2022/01/18 07:57:42;;;;;;;29.33;19.70;;;6.20;99.90;;;;;;4921584;29;20282;-64
2022/01/18 08:00:15;;;;;;;27.98;20.65;;;6.10;99.90;;;;;;4925855;29;20361;-65
2022/01/18 08:02:48;;;;;;;28.90;20.23;;;6.20;99.90;;;;;;4924003;29;20203;-65
2022/01/18 08:05:21;;;;;;;28.75;20.08;;;6.20;99.90;;;;;;4924393;29;20235;-65
2022/01/18 08:07:52;;;;;;;25.52;19.00;;;6.20;99.90;;;;;;4924215;29;20210;-65
2022/01/18 08:10:29;;;;;;;28.42;20.40;;;6.30;99.90;;;;;;4926204;29;20213;-65
2022/01/18 08:13:02;;;;;;;26.30;18.88;;;6.30;99.90;;;;;;4920544;29;20210;-65
2022/01/18 08:15:38;;;;;;;30.40;21.05;;;6.30;99.90;;;;;;4925579;29;20226;-65
2022/01/18 08:18:14;;;;;;;27.23;19.63;;;6.30;99.90;;;;;;4925911;29;20202;-65
2022/01/18 08:20:45;;;;;;;30.75;20.90;;;6.20;99.90;;;;;;4925569;29;20254;-65
2022/01/18 08:23:16;;;;;;;31.27;21.60;;;6.20;99.90;;;;;;4922425;29;20319;-65
2022/01/18 08:25:47;;;;;;;27.60;19.35;;;6.20;99.90;;;;;;4917153;29;20210;-65
2022/01/18 08:28:18;;;;;;;30.65;19.65;;;6.10;99.90;;;;;;4923074;29;20213;-65
2022/01/18 08:30:49;;;;;;;29.73;19.60;;;6.20;99.90;;;;;;4916726;29;20302;-65
2022/01/18 08:33:21;;;;;;;25.52;18.83;;;6.30;99.90;;;;;;4922229;29;20234;-64
2022/01/18 08:35:52;;;;;;;24.20;18.20;;;6.20;99.90;;;;;;4919133;29;20276;-64
2022/01/18 08:38:23;;;;;;;26.23;19.15;;;6.30;99.90;;;;;;4919494;29;20217;-64
2022/01/18 08:40:58;;;;;;;27.80;19.90;;;6.40;99.90;;;;;;4924684;29;20245;-65
2022/01/18 08:43:30;;;;;;;26.90;19.00;;;6.40;99.90;;;;;;4921278;29;20207;-65
2022/01/18 08:46:03;;;;;;;29.85;20.13;;;6.40;99.90;;;;;;4924467;29;20261;-65
2022/01/18 08:48:36;;;;;;;28.13;19.05;;;6.40;99.90;;;;;;4926066;29;20222;-65
2022/01/18 08:51:07;;;;;;;28.10;18.95;;;6.30;99.90;;;;;;4924456;29;20223;-64
2022/01/18 08:53:38;;;;;;;30.25;20.63;;;6.20;99.90;;;;;;4923987;29;20231;-64
2022/01/18 08:56:11;;;;;;;31.52;19.10;;;6.30;99.90;;;;;;4923558;29;20216;-65
2022/01/18 08:58:53;;;;;;;27.67;18.83;;;6.30;99.90;;;;;;4925352;29;20271;-64
2022/01/18 09:01:24;;;;;;;27.70;19.63;;;6.30;99.90;;;;;;4925002;29;20665;-65
2022/01/18 09:03:57;;;;;;;25.90;19.20;;;6.30;99.90;;;;;;4918240;29;20565;-65
2022/01/18 09:06:30;;;;;;;28.40;19.02;;;6.30;99.90;;;;;;4926038;29;20236;-65
2022/01/18 09:09:02;;;;;;;26.40;18.75;;;6.40;99.90;;;;;;4924774;29;20285;-65
2022/01/18 09:11:33;;;;;;;25.38;18.95;;;6.40;99.90;;;;;;4917365;29;20325;-65
2022/01/18 09:14:05;;;;;;;25.00;18.55;;;6.40;99.90;;;;;;4920905;29;20215;-64
2022/01/18 09:16:36;;;;;;;27.63;18.13;;;6.40;99.90;;;;;;4920947;29;20266;-64
2022/01/18 09:19:08;;;;;;;24.10;17.17;;;6.40;99.90;;;;;;4923135;29;20242;-64
2022/01/18 09:21:39;;;;;;;23.83;16.73;;;6.40;99.90;;;;;;4916253;29;20226;-64
2022/01/18 09:24:10;;;;;;;24.98;18.13;;;6.40;99.90;;;;;;4924991;29;20198;-64
2022/01/18 09:26:41;;;;;;;26.77;17.77;;;6.40;99.90;;;;;;4919506;29;20211;-64
2022/01/18 09:29:14;;;;;;;25.05;18.05;;;6.40;99.90;;;;;;4920863;29;20225;-65
2022/01/18 09:31:45;;;;;;;22.52;17.73;;;6.40;99.90;;;;;;4923668;29;20230;-64
2022/01/18 09:34:19;;;;;;;26.85;17.38;;;6.40;99.90;;;;;;4927690;29;20202;-64
2022/01/18 09:36:50;;;;;;;28.33;17.85;;;6.30;99.90;;;;;;4928228;29;20214;-64
2022/01/18 09:39:25;;;;;;;25.15;18.45;;;6.30;99.90;;;;;;4925726;29;20234;-64
2022/01/18 09:42:01;;;;;;;27.02;18.70;;;6.30;99.90;;;;;;4927361;29;20273;-64
2022/01/18 09:44:32;;;;;;;28.45;18.15;;;6.40;99.90;;;;;;4922379;29;20230;-64
2022/01/18 09:47:04;;;;;;;23.60;17.75;;;6.40;99.90;;;;;;4928700;29;20235;-64
2022/01/18 09:49:36;;;;;;;23.52;17.70;;;6.40;99.90;;;;;;4918325;29;20241;-65
2022/01/18 09:52:08;;;;;;;27.45;18.35;;;6.40;99.90;;;;;;4923591;29;20924;-64
2022/01/18 09:54:43;;;;;;;24.42;17.40;;;6.50;99.90;;;;;;4928206;29;20215;-64
2022/01/18 09:57:17;;;;;;;24.23;17.10;;;6.40;99.90;;;;;;4919575;29;20226;-64
2022/01/18 09:59:50;;;;;;;26.15;17.67;;;6.30;99.90;;;;;;4928542;29;20238;-64
2022/01/18 10:02:21;;;;;;;28.88;19.60;;;6.40;99.90;;;;;;4926521;29;20226;-64
2022/01/18 10:04:57;;;;;;;25.10;16.73;;;6.40;99.90;;;;;;4927429;29;20197;-64
2022/01/18 10:07:37;;;;;;;19.92;15.15;;;6.40;99.90;;;;;;4926768;29;20286;-64
2022/01/18 10:10:11;;;;;;;22.02;16.20;;;6.30;99.90;;;;;;4928446;29;20217;-64
2022/01/18 10:12:42;;;;;;;23.70;17.50;;;6.30;99.90;;;;;;4915258;29;20207;-64
2022/01/18 10:15:19;;;;;;;24.33;17.80;;;6.30;99.90;;;;;;4927250;29;20281;-64
2022/01/18 10:17:50;;;;;;;24.50;16.13;;;6.30;99.90;;;;;;4925267;29;20203;-64
2022/01/18 10:20:23;;;;;;;28.05;18.85;;;6.40;99.90;;;;;;4928236;29;20265;-64
2022/01/18 10:22:57;;;;;;;28.38;17.60;;;6.40;99.90;;;;;;4927888;29;20274;-64
2022/01/18 10:25:30;;;;;;;30.30;19.17;;;6.40;99.90;;;;;;4927469;29;20228;-64
2022/01/18 10:28:01;;;;;;;27.15;17.25;;;6.30;99.90;;;;;;4927122;29;20246;-64
2022/01/18 10:30:38;;;;;;;26.70;17.00;;;6.30;99.90;;;;;;4918233;29;20223;-64
2022/01/18 10:33:15;;;;;;;23.05;16.23;;;6.20;99.90;;;;;;4927142;29;20217;-64
2022/01/18 10:36:11;;;;;;;24.20;16.17;;;6.20;99.90;;;;;;4925920;29;20348;-64
2022/01/18 10:38:43;;;;;;;22.52;15.38;;;6.20;99.90;;;;;;4923005;29;20305;-64
2022/01/18 10:41:30;;;;;;;19.85;15.18;;;6.30;99.90;;;;;;4926792;29;20322;-64
2022/01/18 10:44:08;;;;;;;20.00;14.30;;;6.20;99.90;;;;;;4914913;29;20609;-64
2022/01/18 10:46:45;;;;;;;18.23;13.32;;;6.20;99.90;;;;;;4925142;29;20628;-64
2022/01/18 10:49:29;;;;;;;19.75;12.95;;;6.20;99.90;;;;;;4923895;29;20210;-63
2022/01/18 10:52:10;;;;;;;18.83;13.95;;;6.10;99.90;;;;;;4927275;29;20228;-64
2022/01/18 10:54:45;;;;;;;23.52;14.55;;;6.10;99.90;;;;;;4926212;29;20211;-64
2022/01/18 10:57:19;;;;;;;17.63;12.65;;;6.10;99.90;;;;;;4920125;29;20230;-64
2022/01/18 10:59:50;;;;;;;19.60;13.48;;;6.00;99.90;;;;;;4926805;29;20195;-64
2022/01/18 11:02:22;;;;;;;19.02;13.38;;;6.10;99.90;;;;;;4920096;29;20227;-64
2022/01/18 11:04:55;;;;;;;16.75;13.20;;;6.10;99.90;;;;;;4927724;29;20290;-64
2022/01/18 11:07:29;;;;;;;16.50;12.18;;;6.10;99.90;;;;;;4923941;29;20207;-64
2022/01/18 11:10:05;;;;;;;18.17;12.10;;;6.00;99.90;;;;;;4927087;29;20225;-63
2022/01/18 11:12:46;;;;;;;14.20;11.55;;;6.00;99.90;;;;;;4925937;29;20718;-64
2022/01/18 11:15:21;;;;;;;14.93;11.75;;;6.00;99.90;;;;;;4926102;29;20255;-64
2022/01/18 11:17:58;;;;;;;17.23;12.05;;;6.00;99.90;;;;;;4920715;29;20230;-63
2022/01/18 11:20:31;;;;;;;13.90;10.35;;;6.00;99.90;;;;;;4927257;29;20298;-65
2022/01/18 11:23:06;;;;;;;14.45;10.70;;;6.00;99.90;;;;;;4917797;29;20237;-67
2022/01/18 11:25:38;;;;;;;16.85;11.90;;;6.00;99.90;;;;;;4925540;29;20202;-63
2022/01/18 11:28:10;;;;;;;14.98;10.30;;;6.10;99.90;;;;;;4926969;29;20396;-63
2022/01/18 11:30:44;;;;;;;15.10;9.52;;;6.00;99.90;;;;;;4924479;29;20206;-63
2022/01/18 11:33:18;;;;;;;12.63;9.98;;;6.00;99.90;;;;;;4924116;29;20218;-64
2022/01/18 11:35:56;;;;;;;12.00;10.05;;;6.00;99.90;;;;;;4924692;29;20229;-64
2022/01/18 11:38:36;;;;;;;12.07;9.77;;;6.10;99.90;;;;;;4925936;29;20199;-63
2022/01/18 11:41:23;;;;;;;14.10;9.80;;;6.00;99.90;;;;;;4926646;29;20240;-63
2022/01/18 11:43:55;;;;;;;10.32;8.85;;;6.00;99.90;;;;;;4923570;29;20285;-63
2022/01/18 11:46:30;;;;;;;10.07;9.05;;;6.00;99.90;;;;;;4920142;29;20577;-63
2022/01/18 11:49:02;;;;;;;12.45;9.35;;;6.00;99.90;;;;;;4918779;29;20311;-63
2022/01/18 11:51:43;;;;;;;10.43;7.90;;;6.00;99.90;;;;;;4926631;29;20294;-64
2022/01/18 11:54:39;;;;;;;10.77;9.25;;;6.00;99.90;;;;;;4925775;29;20678;-63
2022/01/18 11:57:38;;;;;;;9.35;7.75;;;6.10;99.90;;;;;;4924333;29;20288;-63
2022/01/18 12:00:24;;;;;;;10.07;7.95;;;6.10;99.90;;;;;;4923605;29;20693;-63
2022/01/18 12:02:58;;;;;;;11.00;8.48;;;6.00;99.90;;;;;;4921823;29;20269;-63
2022/01/18 12:05:43;;;;;;;9.25;8.10;;;6.10;99.90;;;;;;4920455;29;20198;-63
2022/01/18 12:08:33;;;;;;;9.50;8.00;;;6.10;99.90;;;;;;4922085;29;20222;-63
2022/01/18 12:11:07;;;;;;;8.32;7.47;;;6.20;99.90;;;;;;4926844;29;20278;-63
2022/01/18 12:13:47;;;;;;;10.95;7.80;;;6.10;99.90;;;;;;4917356;29;20305;-63
2022/01/18 12:16:25;;;;;;;9.10;7.15;;;6.10;99.90;;;;;;4925328;29;20207;-63
2022/01/18 12:19:02;;;;;;;7.78;6.97;;;6.00;99.90;;;;;;4921858;29;20217;-63
2022/01/18 12:21:35;;;;;;;7.95;7.00;;;6.10;99.90;;;;;;4924860;29;20230;-63
2022/01/18 12:24:20;;;;;;;8.38;7.22;;;6.10;99.90;;;;;;4923161;29;20210;-63
2022/01/18 12:27:03;;;;;;;8.32;6.60;;;6.00;99.90;;;;;;4919362;29;20203;-63
2022/01/18 12:29:49;;;;;;;9.13;7.03;;;6.10;99.90;;;;;;4921040;29;20313;-63
2022/01/18 12:32:49;;;;;;;8.30;7.05;;;6.10;99.90;;;;;;4921981;29;20275;-63
2022/01/18 12:35:27;;;;;;;9.80;7.68;;;6.20;99.90;;;;;;4919053;29;20286;-63
2022/01/18 12:37:58;;;;;;;7.95;6.00;;;6.10;99.90;;;;;;4917927;29;20199;-63
2022/01/18 12:40:50;;;;;;;9.27;7.43;;;6.10;99.90;;;;;;4926210;29;20211;-63
2022/01/18 12:46:17;;;;;;;9.20;7.40;;;6.10;99.90;;;;;;4921360;29;20295;-64
2022/01/18 12:48:49;;;;;;;7.47;6.30;;;6.10;99.90;;;;;;4921681;29;20349;-63
2022/01/18 12:51:21;;;;;;;8.52;6.95;;;6.10;99.90;;;;;;4926144;29;20210;-63
2022/01/18 12:53:52;;;;;;;10.90;8.18;;;6.00;99.90;;;;;;4920580;29;20207;-63
2022/01/18 12:56:27;;;;;;;8.10;7.00;;;6.10;99.90;;;;;;4925941;29;20198;-63
2022/01/18 12:59:04;;;;;;;7.90;6.97;;;6.00;99.90;;;;;;4918748;29;20294;-63
2022/01/18 13:01:38;;;;;;;7.35;6.45;;;6.10;99.90;;;;;;4919060;29;20234;-63
2022/01/18 13:04:10;;;;;;;8.80;7.45;;;6.10;99.90;;;;;;4926453;29;20210;-63
2022/01/18 13:06:41;;;;;;;8.82;7.40;;;6.20;99.90;;;;;;4921876;29;20215;-63
2022/01/18 13:09:12;;;;;;;8.95;7.70;;;6.20;99.90;;;;;;4923352;29;20206;-63
2022/01/18 13:11:48;;;;;;;7.63;6.65;;;6.20;99.90;;;;;;4916902;29;20194;-64
2022/01/18 13:14:25;;;;;;;7.95;7.10;;;6.20;99.90;;;;;;4927380;29;20217;-64
2022/01/18 13:22:58;;;;;;;10.00;7.90;;;6.20;99.90;;;;;;4919902;29;20230;-63
2022/01/18 13:25:30;;;;;;;8.70;6.90;;;6.10;99.90;;;;;;4922928;29;20305;-63
2022/01/18 13:28:03;;;;;;;8.32;6.45;;;6.10;99.90;;;;;;4928120;29;20203;-63
2022/01/18 13:30:39;;;;;;;10.20;7.97;;;6.20;99.90;;;;;;4927966;29;20251;-63
2022/01/18 13:33:12;;;;;;;9.63;7.75;;;6.30;99.90;;;;;;4928396;29;20612;-63
2022/01/18 13:35:46;;;;;;;7.85;6.68;;;6.30;99.90;;;;;;4918702;29;20318;-63
2022/01/18 13:38:16;;;;;;;8.25;6.95;;;6.40;99.90;;;;;;4921610;29;20211;-63
2022/01/18 13:40:50;;;;;;;8.30;6.72;;;6.30;99.90;;;;;;4929047;29;20242;-64
2022/01/18 13:43:28;;;;;;;7.55;6.68;;;6.20;99.90;;;;;;4923431;29;20222;-63
2022/01/18 13:46:00;;;;;;;9.70;7.82;;;6.20;99.90;;;;;;4926621;29;20210;-63
2022/01/18 13:48:33;;;;;;;8.43;6.78;;;6.20;99.90;;;;;;4923015;29;20325;-63
2022/01/18 13:51:14;;;;;;;7.25;6.50;;;6.20;99.90;;;;;;4925697;29;20207;-63
2022/01/18 13:53:45;;;;;;;10.77;7.80;;;6.20;99.90;;;;;;4928153;29;20214;-63
2022/01/18 13:56:18;;;;;;;10.38;8.10;;;6.20;99.90;;;;;;4925259;29;20207;-63
2022/01/18 13:58:51;;;;;;;8.63;7.72;;;6.20;99.90;;;;;;4921936;29;20237;-63
2022/01/18 14:01:26;;;;;;;8.38;7.47;;;6.10;99.90;;;;;;4927993;29;20289;-63
2022/01/18 14:04:00;;;;;;;9.30;7.80;;;6.20;99.90;;;;;;4928826;29;20629;-62
2022/01/18 14:06:36;;;;;;;8.82;7.80;;;6.20;99.90;;;;;;4926395;29;20209;-63
2022/01/18 14:09:17;;;;;;;9.45;8.20;;;6.20;99.90;;;;;;4928767;29;20214;-63